Flight Track Log - Related Links

Times and Time Zones

All times are in EDT time to prevent confusion due to time zone crossing. See the N749FE flight status page for this flight to view local times or setup timezone preferences in your user account.

Time Position Orientation Groundspeed Altitude Reporting Facility
EDT Latitude Longitude Course Direction KTS MPH feet Rate Location/Type
Fri 07:40:27 AM 31.9781 -102.0344 84° East 130 150 9,500  Level Fort Worth Center
Fri 07:41:27 AM 31.9858 -101.9908 78° East 140 161 10,700 1,350 Climbing Fort Worth Center
Fri 07:42:00 AM 32.0167 -102.0167 83° East  Level FlightAware Approximate
Fri 07:42:27 AM 31.9917 -101.9447 82° East 140 161 12,200  Level Fort Worth Center
Fri 07:43:00 AM 32.0252 -101.9652 79° East  Level FlightAware Approximate
Fri 07:43:27 AM 31.9994 -101.9008 78° East 140 161 13,400  Level Fort Worth Center
Fri 07:44:00 AM 32.0336 -101.9137 84° East  Level FlightAware Approximate
Fri 07:44:27 AM 32.0053 -101.8547 82° East 140 161 14,400  Level Fort Worth Center
Fri 07:45:00 AM 32.0384 -101.8615 84° East  Level FlightAware Approximate
Fri 07:45:27 AM 32.0136 -101.7964 80° East 150 173 15,000  Level Fort Worth Center
Fri 07:46:27 AM 32.0200 -101.7353 83° East 169 194 15,000  Level Fort Worth Center
Fri 07:47:27 AM 32.0283 -101.6719 81° East 187 215 15,000  Level Fort Worth Center
Fri 07:48:27 AM 32.0347 -101.6086 83° East 192 221 15,000 -47 Level Fort Worth Center
Fri 07:53:47 AM 32.0770 -101.2730 83° East 194 223 14,700 -49 Descending FlightAware ADS-B
Fri 07:54:37 AM 32.0840 -101.2200 81° East 192 221 14,700  Level FlightAware ADS-B
Fri 07:55:17 AM 32.0890 -101.1780 82° East 194 223 14,700  Level FlightAware ADS-B
Fri 07:55:57 AM 32.0950 -101.1370 80° East 195 224 14,700  Level FlightAware ADS-B
Fri 07:56:42 AM 32.1010 -101.0880 82° East 195 224 14,700  Level FlightAware ADS-B
Fri 07:57:22 AM 32.1060 -101.0450 82° East 196 226 14,700  Level FlightAware ADS-B
Fri 07:57:52 AM 32.1100 -101.0130 82° East 196 226 14,700  Level FlightAware ADS-B
Fri 07:58:32 AM 32.1150 -100.9720 82° East 198 228 14,700  Level FlightAware ADS-B
Fri 07:59:12 AM 32.1200 -100.9280 82° East 197 227 14,700  Level FlightAware ADS-B
Fri 07:59:57 AM 32.1260 -100.8810 81° East 199 229 14,700  Level FlightAware ADS-B
Fri 08:00:37 AM 32.1310 -100.8430 81° East 198 228 14,700  Level FlightAware ADS-B
Fri 08:01:17 AM 32.1360 -100.7980 83° East 199 229 14,700  Level FlightAware ADS-B
Fri 08:01:57 AM 32.1420 -100.7520 81° East 201 231 14,700  Level FlightAware ADS-B
Fri 08:02:42 AM 32.1470 -100.7030 83° East 201 231 14,700  Level FlightAware ADS-B
Fri 08:03:37 AM 32.1550 -100.6440 81° East 200 230 14,700  Level FlightAware ADS-B
Fri 08:04:22 AM 32.1600 -100.5960 83° East 201 231 14,700  Level FlightAware ADS-B
Fri 08:05:02 AM 32.1660 -100.5500 81° East 201 231 14,700  Level FlightAware ADS-B
Fri 08:05:42 AM 32.1710 -100.5090 82° East 204 235 14,700  Level FlightAware ADS-B
Fri 08:06:27 AM 32.1770 -100.4620 81° East 204 235 14,700  Level FlightAware ADS-B
Fri 08:07:07 AM 32.1820 -100.4160 83° East 200 230 14,700  Level FlightAware ADS-B
Fri 08:07:52 AM 32.1880 -100.3640 82° East 201 231 14,700  Level FlightAware ADS-B
Fri 08:08:32 AM 32.1930 -100.3210 82° East 203 234 14,700  Level FlightAware ADS-B
Fri 08:09:12 AM 32.1980 -100.2760 83° East 204 235 14,700  Level FlightAware ADS-B
Fri 08:09:57 AM 32.2040 -100.2270 82° East 205 236 14,700  Level FlightAware ADS-B
Fri 08:10:47 AM 32.2100 -100.1720 83° East 205 236 14,700  Level FlightAware ADS-B
Fri 08:11:22 AM 32.2150 -100.1360 81° East 205 236 14,700  Level FlightAware ADS-B
Fri 08:12:12 AM 32.2210 -100.0760 83° East 207 238 14,700  Level FlightAware ADS-B
Fri 08:12:52 AM 32.2260 -100.0310 83° East 205 236 14,700  Level FlightAware ADS-B
Fri 08:13:32 AM 32.2320 -99.9870 81° East 209 241 14,700  Level FlightAware ADS-B
Fri 08:14:17 AM 32.2380 -99.9360 82° East 207 238 14,700 71 Level FlightAware ADS-B
Fri 08:14:57 AM 32.2430 -99.8890 83° East 206 237 14,800  Climbing FlightAware ADS-B
Fri 08:15:37 AM 32.2480 -99.8450 82° East 205 236 14,700 -71 Descending FlightAware ADS-B
Fri 08:16:22 AM 32.2540 -99.7970 82° East 203 234 14,700 71 Level FlightAware ADS-B
Fri 08:17:02 AM 32.2590 -99.7520 83° East 205 236 14,800 71 Climbing FlightAware ADS-B
Fri 08:17:47 AM 32.2650 -99.7010 82° East 206 237 14,800 -71 Level FlightAware ADS-B
Fri 08:18:27 AM 32.2700 -99.6580 82° East 208 239 14,700  Descending FlightAware ADS-B
Fri 08:19:07 AM 32.2750 -99.6110 83° East 209 241 14,800  Climbing FlightAware ADS-B
Fri 08:19:52 AM 32.2800 -99.5600 83° East 209 241 14,700 -71 Descending FlightAware ADS-B
Fri 08:20:32 AM 32.2850 -99.5150 83° East 206 237 14,700 71 Level FlightAware ADS-B
Fri 08:21:17 AM 32.2910 -99.4650 82° East 208 239 14,800 71 Climbing FlightAware ADS-B
Fri 08:21:57 AM 32.2960 -99.4190 83° East 206 237 14,800  Level FlightAware ADS-B
Fri 08:22:37 AM 32.3000 -99.3790 83° East 206 237 14,800  Level FlightAware ADS-B
Fri 08:23:17 AM 32.3050 -99.3320 83° East 207 238 14,800 -60 Level FlightAware ADS-B
Fri 08:24:17 AM 32.3120 -99.2670 83° East 207 238 14,700 -60 Descending FlightAware ADS-B
Fri 08:24:57 AM 32.3170 -99.2280 81° East 207 238 14,700  Level FlightAware ADS-B
Fri 08:25:37 AM 32.3210 -99.1900 83° East 207 238 14,700 267 Level FlightAware ADS-B
Fri 08:26:27 AM 32.3269 -99.1244 83° East 202 232 15,100 218 Climbing Fort Worth Center
Fri 08:27:27 AM 32.3319 -99.0583 85° East 202 232 15,100  Level Fort Worth Center
Fri 08:28:27 AM 32.3411 -98.9894 81° East 202 232 15,100  Level Fort Worth Center
Fri 08:29:27 AM 32.3461 -98.9208 85° East 202 232 15,100 -50 Level Fort Worth Center
Fri 08:30:27 AM 32.3553 -98.8519 81° East 202 232 15,000 -650 Descending Fort Worth Center
Fri 08:31:27 AM 32.3603 -98.7833 85° East 202 232 13,800 -1,050 Descending Fort Worth Center
Fri 08:32:27 AM 32.3717 -98.7022 81° East 214 246 12,900 -850 Descending Fort Worth Center
Fri 08:33:27 AM 32.3806 -98.6286 82° East 222 255 12,100 -800 Descending Fort Worth Center
Fri 08:34:27 AM 32.3917 -98.5575 79° East 222 255 11,300 -750 Descending Fort Worth Center
Fri 08:35:27 AM 32.3967 -98.4861 85° East 216 249 10,600 -700 Descending Fort Worth Center
Fri 08:36:27 AM 32.4036 -98.4125 84° East 221 254 9,900 -650 Descending Fort Worth Center
Fri 08:37:27 AM 32.4103 -98.3436 83° East 215 247 9,300 -700 Descending Fort Worth Center
Fri 08:38:27 AM 32.4169 -98.2722 84° East 220 253 8,500 -379 Descending Fort Worth Center
Fri 08:43:47 AM 32.4500 -97.9300 84° East 195 224 -346 Descending FlightAware ADS-B
Fri 08:44:57 AM 32.4570 -97.8560 84° East 189 217 522 Level FlightAware ADS-B
Fri 08:48:22 AM 32.5250 -97.6950 63° Northeast 154 177 615 Level FlightAware ADS-B
Fri 08:50:42 AM 32.5990 -97.6180 41° Northeast 154 177 1,297 Level FlightAware ADS-B
Fri 08:51:27 AM 32.6225 -97.5911 41° Northeast 149 171 4,000 2,286 Climbing Fort Worth Center
Fri 08:52:27 AM 32.6558 -97.5564 41° Northeast 154 177 4,000  Level Fort Worth Center
Fri 08:53:27 AM 32.6872 -97.5244 41° Northeast 154 177 4,000  Level Fort Worth Center
Fri 08:54:27 AM 32.7186 -97.4875 45° Northeast 154 177 4,000  Level Fort Worth Center
Fri 08:55:27 AM 32.7497 -97.4553 41° Northeast 154 177 4,000 -200 Level Fort Worth Center
Fri 08:56:27 AM 32.7853 -97.4183 41° Northeast 159 183 3,600 -450 Descending Fort Worth Center
Fri 08:57:27 AM 32.8186 -97.3814 43° Northeast 159 183 3,100 -450 Descending Fort Worth Center
Fri 08:58:27 AM 32.8564 -97.3517 33° Northeast 159 183 2,700 -450 Descending Fort Worth Center
Fri 08:59:27 AM 32.8917 -97.3269 30° Northeast 149 171 2,200 -500 Descending Fort Worth Center
Fri 09:02:00 AM 32.9577 -97.3214 23° Northeast  Level Estimated
Fri 09:09:00 AM 32.9833 -97.3167 23° Northeast  Level FlightAware Approximate

Login

Don't have an account? Register now (free) for customized features, flight alerts, and more!